SMZO/ORG METAR and TAF weather

Enter ICAO airport designator
Station Type Date Time Source
SMZO METAR 2019/02/20 00:00 UTC NOAA

SMZO 200000Z 04007KT 9999 -SHRA SCT010 SCT025 25/23 Q1013 NOSIG


Station Type Date Time Source
SMZO Decoded METAR 2019/02/20 00:00 UTC NOAA

Station name not available
Feb 19, 2019 - 07:00 PM EST / 2019.02.20 0000 UTC
Wind: from the NE (040 degrees) at 8 MPH (7 KT):0
Visibility: greater than 7 mile(s):0
Sky conditions: partly cloudy
Weather: light rain showers
Temperature: 77 F (25 C)
Dew Point: 73 F (23 C)
Relative Humidity: 88%
Pressure (altimeter): 29.91 in. Hg (1013 hPa)
ob: SMZO 200000Z 04007KT 9999 -SHRA SCT010 SCT025 25/23 Q1013 NOSIG
cycle: 0

Station Type Date Time Source
SMZO TAF 2019/02/20 06:06 UTC NOAA

TAF TAF SMZO 200400Z 2006/2106 05004KT 9999 SCT010 SCT025 TX30/2018Z TN23/2010Z PROB30
TEMPO 2009/2012 5000 SHRA
BECMG 2011/2013 06012KT
TEMPO 2013/2019 4000 SHRA FEW015TCU SCT020


Example: see airport list